sensor_id;sensor_type;location;lat;lon;timestamp;temperature;humidity
37788;DHT22;23627;53.302;-6.362;2023-05-02T00:00:28;12.60;99.90
37788;DHT22;23627;53.302;-6.362;2023-05-02T00:02:54;12.60;99.90
37788;DHT22;23627;53.302;-6.362;2023-05-02T00:05:20;12.60;99.90
37788;DHT22;23627;53.302;-6.362;2023-05-02T00:07:46;12.60;99.90
37788;DHT22;23627;53.302;-6.362;2023-05-02T00:10:13;12.50;99.90
37788;DHT22;23627;53.302;-6.362;2023-05-02T00:12:39;12.50;99.90
37788;DHT22;23627;53.302;-6.362;2023-05-02T00:15:05;12.50;99.90
37788;DHT22;23627;53.302;-6.362;2023-05-02T00:17:31;12.50;99.90
37788;DHT22;23627;53.302;-6.362;2023-05-02T00:19:58;12.40;99.90
37788;DHT22;23627;53.302;-6.362;2023-05-02T00:22:27;12.40;99.90
37788;DHT22;23627;53.302;-6.362;2023-05-02T00:24:57;12.40;99.90
37788;DHT22;23627;53.302;-6.362;2023-05-02T00:27:29;12.40;99.90
37788;DHT22;23627;53.302;-6.362;2023-05-02T00:30:02;12.40;99.90
37788;DHT22;23627;53.302;-6.362;2023-05-02T00:32:28;12.30;99.90
37788;DHT22;23627;53.302;-6.362;2023-05-02T00:34:57;12.30;99.90
37788;DHT22;23627;53.302;-6.362;2023-05-02T00:37:26;12.30;99.90
37788;DHT22;23627;53.302;-6.362;2023-05-02T00:39:53;12.30;99.90
37788;DHT22;23627;53.302;-6.362;2023-05-02T00:42:19;12.30;99.90
37788;DHT22;23627;53.302;-6.362;2023-05-02T00:44:45;12.20;99.90
37788;DHT22;23627;53.302;-6.362;2023-05-02T00:47:13;12.20;99.90
37788;DHT22;23627;53.302;-6.362;2023-05-02T00:49:42;12.20;99.90
37788;DHT22;23627;53.302;-6.362;2023-05-02T00:52:16;12.20;99.90
37788;DHT22;23627;53.302;-6.362;2023-05-02T00:54:42;12.10;99.90
37788;DHT22;23627;53.302;-6.362;2023-05-02T00:57:08;12.10;99.90
37788;DHT22;23627;53.302;-6.362;2023-05-02T00:59:48;12.10;99.90
37788;DHT22;23627;53.302;-6.362;2023-05-02T01:05:10;12.10;99.90
37788;DHT22;23627;53.302;-6.362;2023-05-02T01:08:15;12.10;99.90
37788;DHT22;23627;53.302;-6.362;2023-05-02T01:10:51;12.10;99.90
37788;DHT22;23627;53.302;-6.362;2023-05-02T01:13:31;12.10;99.90
37788;DHT22;23627;53.302;-6.362;2023-05-02T01:16:01;12.10;99.90
37788;DHT22;23627;53.302;-6.362;2023-05-02T01:18:33;12.10;99.90
37788;DHT22;23627;53.302;-6.362;2023-05-02T01:21:02;12.10;99.90
37788;DHT22;23627;53.302;-6.362;2023-05-02T01:26:13;12.10;99.90
37788;DHT22;23627;53.302;-6.362;2023-05-02T01:29:00;12.10;99.90
37788;DHT22;23627;53.302;-6.362;2023-05-02T01:31:39;12.20;99.90
37788;DHT22;23627;53.302;-6.362;2023-05-02T01:34:14;12.20;99.90
37788;DHT22;23627;53.302;-6.362;2023-05-02T01:36:45;12.20;99.90
37788;DHT22;23627;53.302;-6.362;2023-05-02T01:39:14;12.20;99.90
37788;DHT22;23627;53.302;-6.362;2023-05-02T01:41:44;12.20;99.90
37788;DHT22;23627;53.302;-6.362;2023-05-02T01:44:12;12.20;99.90
37788;DHT22;23627;53.302;-6.362;2023-05-02T01:46:41;12.20;99.90
37788;DHT22;23627;53.302;-6.362;2023-05-02T01:49:08;12.20;99.90
37788;DHT22;23627;53.302;-6.362;2023-05-02T01:51:39;12.20;99.90
37788;DHT22;23627;53.302;-6.362;2023-05-02T01:54:08;12.30;99.90
37788;DHT22;23627;53.302;-6.362;2023-05-02T01:56:36;12.20;99.90
37788;DHT22;23627;53.302;-6.362;2023-05-02T01:59:07;12.20;99.90
37788;DHT22;23627;53.302;-6.362;2023-05-02T02:01:38;12.20;99.90
37788;DHT22;23627;53.302;-6.362;2023-05-02T02:04:06;12.20;99.90
37788;DHT22;23627;53.302;-6.362;2023-05-02T02:06:34;12.20;99.90
37788;DHT22;23627;53.302;-6.362;2023-05-02T02:09:00;12.20;99.90
37788;DHT22;23627;53.302;-6.362;2023-05-02T02:11:35;12.30;99.90
37788;DHT22;23627;53.302;-6.362;2023-05-02T02:14:05;12.20;99.90
37788;DHT22;23627;53.302;-6.362;2023-05-02T02:16:37;12.20;99.90
37788;DHT22;23627;53.302;-6.362;2023-05-02T02:19:06;12.30;99.90
37788;DHT22;23627;53.302;-6.362;2023-05-02T02:21:34;12.30;99.90
37788;DHT22;23627;53.302;-6.362;2023-05-02T02:24:02;12.20;99.90
37788;DHT22;23627;53.302;-6.362;2023-05-02T02:26:28;12.20;99.90
37788;DHT22;23627;53.302;-6.362;2023-05-02T02:28:55;12.20;99.90
37788;DHT22;23627;53.302;-6.362;2023-05-02T02:31:20;12.20;99.90
37788;DHT22;23627;53.302;-6.362;2023-05-02T02:33:47;12.20;99.90
37788;DHT22;23627;53.302;-6.362;2023-05-02T02:36:24;12.20;99.90
37788;DHT22;23627;53.302;-6.362;2023-05-02T02:58:14;12.20;99.90
37788;DHT22;23627;53.302;-6.362;2023-05-02T03:00:44;12.20;99.90
37788;DHT22;23627;53.302;-6.362;2023-05-02T03:03:13;12.20;99.90
37788;DHT22;23627;53.302;-6.362;2023-05-02T03:05:41;12.20;99.90
37788;DHT22;23627;53.302;-6.362;2023-05-02T03:08:08;12.20;99.90
37788;DHT22;23627;53.302;-6.362;2023-05-02T03:10:34;12.20;99.90
37788;DHT22;23627;53.302;-6.362;2023-05-02T03:13:00;12.10;99.90
37788;DHT22;23627;53.302;-6.362;2023-05-02T03:18:18;12.10;99.90
37788;DHT22;23627;53.302;-6.362;2023-05-02T03:20:44;12.10;99.90
37788;DHT22;23627;53.302;-6.362;2023-05-02T03:23:10;12.10;99.90
37788;DHT22;23627;53.302;-6.362;2023-05-02T03:25:35;12.10;99.90
37788;DHT22;23627;53.302;-6.362;2023-05-02T03:28:02;12.10;99.90
37788;DHT22;23627;53.302;-6.362;2023-05-02T03:30:27;12.10;99.90
37788;DHT22;23627;53.302;-6.362;2023-05-02T03:32:53;12.10;99.90
37788;DHT22;23627;53.302;-6.362;2023-05-02T03:35:19;12.10;99.90
37788;DHT22;23627;53.302;-6.362;2023-05-02T03:37:45;12.10;99.90
37788;DHT22;23627;53.302;-6.362;2023-05-02T03:40:11;12.10;99.90
37788;DHT22;23627;53.302;-6.362;2023-05-02T03:42:37;12.10;99.90
37788;DHT22;23627;53.302;-6.362;2023-05-02T03:45:06;12.10;99.90
37788;DHT22;23627;53.302;-6.362;2023-05-02T03:47:33;12.00;99.90
37788;DHT22;23627;53.302;-6.362;2023-05-02T03:49:59;12.00;99.90
37788;DHT22;23627;53.302;-6.362;2023-05-02T03:52:26;12.10;99.90
37788;DHT22;23627;53.302;-6.362;2023-05-02T03:54:56;12.10;99.90
37788;DHT22;23627;53.302;-6.362;2023-05-02T03:57:21;12.00;99.90
37788;DHT22;23627;53.302;-6.362;2023-05-02T03:59:47;12.00;99.90
37788;DHT22;23627;53.302;-6.362;2023-05-02T04:02:13;12.00;99.90
37788;DHT22;23627;53.302;-6.362;2023-05-02T04:04:39;12.00;99.90
37788;DHT22;23627;53.302;-6.362;2023-05-02T04:07:05;12.00;99.90
37788;DHT22;23627;53.302;-6.362;2023-05-02T04:09:40;12.00;99.90
37788;DHT22;23627;53.302;-6.362;2023-05-02T04:12:05;12.00;99.90
37788;DHT22;23627;53.302;-6.362;2023-05-02T04:14:31;12.00;99.90
37788;DHT22;23627;53.302;-6.362;2023-05-02T04:20:21;11.90;99.90
37788;DHT22;23627;53.302;-6.362;2023-05-02T04:22:47;11.90;99.90
37788;DHT22;23627;53.302;-6.362;2023-05-02T04:25:15;11.90;99.90
37788;DHT22;23627;53.302;-6.362;2023-05-02T04:27:40;11.90;99.90
37788;DHT22;23627;53.302;-6.362;2023-05-02T04:30:07;11.90;99.90
37788;DHT22;23627;53.302;-6.362;2023-05-02T04:32:34;11.80;99.90
37788;DHT22;23627;53.302;-6.362;2023-05-02T04:35:00;11.80;99.90
37788;DHT22;23627;53.302;-6.362;2023-05-02T04:37:26;11.80;99.90
37788;DHT22;23627;53.302;-6.362;2023-05-02T04:39:51;11.80;99.90
37788;DHT22;23627;53.302;-6.362;2023-05-02T04:42:17;11.80;99.90
37788;DHT22;23627;53.302;-6.362;2023-05-02T04:44:43;11.70;99.90
37788;DHT22;23627;53.302;-6.362;2023-05-02T04:47:09;11.70;99.90
37788;DHT22;23627;53.302;-6.362;2023-05-02T04:49:35;11.70;99.90
37788;DHT22;23627;53.302;-6.362;2023-05-02T04:52:01;11.70;99.90
37788;DHT22;23627;53.302;-6.362;2023-05-02T04:54:26;11.70;99.90
37788;DHT22;23627;53.302;-6.362;2023-05-02T04:56:52;11.60;99.90
37788;DHT22;23627;53.302;-6.362;2023-05-02T04:59:18;11.60;99.90
37788;DHT22;23627;53.302;-6.362;2023-05-02T05:01:44;11.60;99.90
37788;DHT22;23627;53.302;-6.362;2023-05-02T05:04:10;11.60;99.90
37788;DHT22;23627;53.302;-6.362;2023-05-02T05:06:38;11.60;99.90
37788;DHT22;23627;53.302;-6.362;2023-05-02T05:09:04;11.60;99.90
37788;DHT22;23627;53.302;-6.362;2023-05-02T05:11:30;11.60;99.90
37788;DHT22;23627;53.302;-6.362;2023-05-02T05:13:56;11.50;99.90
37788;DHT22;23627;53.302;-6.362;2023-05-02T05:16:22;11.60;99.90
37788;DHT22;23627;53.302;-6.362;2023-05-02T05:18:48;11.60;99.90
37788;DHT22;23627;53.302;-6.362;2023-05-02T05:21:14;11.60;99.90
37788;DHT22;23627;53.302;-6.362;2023-05-02T05:23:40;11.60;99.90
37788;DHT22;23627;53.302;-6.362;2023-05-02T05:26:14;11.50;99.90
37788;DHT22;23627;53.302;-6.362;2023-05-02T05:28:41;11.60;99.90
37788;DHT22;23627;53.302;-6.362;2023-05-02T05:31:08;11.60;99.90
37788;DHT22;23627;53.302;-6.362;2023-05-02T05:33:35;11.60;99.90
37788;DHT22;23627;53.302;-6.362;2023-05-02T05:36:09;11.60;99.90
37788;DHT22;23627;53.302;-6.362;2023-05-02T05:38:35;11.60;99.90
37788;DHT22;23627;53.302;-6.362;2023-05-02T05:41:02;11.60;99.90
37788;DHT22;23627;53.302;-6.362;2023-05-02T05:43:29;11.60;99.90
37788;DHT22;23627;53.302;-6.362;2023-05-02T05:45:55;11.60;99.90
37788;DHT22;23627;53.302;-6.362;2023-05-02T05:48:22;11.60;99.90
37788;DHT22;23627;53.302;-6.362;2023-05-02T05:50:48;11.60;99.90
37788;DHT22;23627;53.302;-6.362;2023-05-02T05:53:14;11.60;99.90
37788;DHT22;23627;53.302;-6.362;2023-05-02T05:55:40;11.70;99.90
37788;DHT22;23627;53.302;-6.362;2023-05-02T05:58:09;11.70;99.90
37788;DHT22;23627;53.302;-6.362;2023-05-02T06:00:38;11.80;99.90
37788;DHT22;23627;53.302;-6.362;2023-05-02T06:03:04;11.80;99.90
37788;DHT22;23627;53.302;-6.362;2023-05-02T06:05:31;11.90;99.90
37788;DHT22;23627;53.302;-6.362;2023-05-02T06:07:57;11.90;99.90
37788;DHT22;23627;53.302;-6.362;2023-05-02T06:10:23;12.00;99.90
37788;DHT22;23627;53.302;-6.362;2023-05-02T06:12:49;12.00;99.90
37788;DHT22;23627;53.302;-6.362;2023-05-02T06:15:15;12.10;99.90
37788;DHT22;23627;53.302;-6.362;2023-05-02T06:17:41;12.10;99.90
37788;DHT22;23627;53.302;-6.362;2023-05-02T06:20:09;12.10;99.90
37788;DHT22;23627;53.302;-6.362;2023-05-02T06:22:35;12.20;99.90
37788;DHT22;23627;53.302;-6.362;2023-05-02T06:25:04;12.20;99.90
37788;DHT22;23627;53.302;-6.362;2023-05-02T06:27:31;12.30;99.90
37788;DHT22;23627;53.302;-6.362;2023-05-02T06:30:00;12.40;99.90
37788;DHT22;23627;53.302;-6.362;2023-05-02T06:32:32;12.50;99.90
37788;DHT22;23627;53.302;-6.362;2023-05-02T06:34:58;12.50;99.90
37788;DHT22;23627;53.302;-6.362;2023-05-02T06:37:24;12.60;99.90
37788;DHT22;23627;53.302;-6.362;2023-05-02T06:39:49;12.60;99.90
37788;DHT22;23627;53.302;-6.362;2023-05-02T06:42:18;12.60;99.90
37788;DHT22;23627;53.302;-6.362;2023-05-02T06:44:43;12.70;99.90
37788;DHT22;23627;53.302;-6.362;2023-05-02T06:47:09;12.70;99.90
37788;DHT22;23627;53.302;-6.362;2023-05-02T06:49:35;12.80;99.90
37788;DHT22;23627;53.302;-6.362;2023-05-02T06:52:01;12.80;99.90
37788;DHT22;23627;53.302;-6.362;2023-05-02T06:54:26;12.80;99.90
37788;DHT22;23627;53.302;-6.362;2023-05-02T06:56:53;12.80;99.90
37788;DHT22;23627;53.302;-6.362;2023-05-02T06:59:18;12.70;99.90
37788;DHT22;23627;53.302;-6.362;2023-05-02T07:01:44;12.70;99.90
37788;DHT22;23627;53.302;-6.362;2023-05-02T07:04:10;12.70;99.90
37788;DHT22;23627;53.302;-6.362;2023-05-02T07:06:36;12.70;99.90
37788;DHT22;23627;53.302;-6.362;2023-05-02T07:09:02;12.70;99.90
37788;DHT22;23627;53.302;-6.362;2023-05-02T07:11:27;12.70;99.90
37788;DHT22;23627;53.302;-6.362;2023-05-02T07:13:53;12.70;99.90
37788;DHT22;23627;53.302;-6.362;2023-05-02T07:16:19;12.80;99.90
37788;DHT22;23627;53.302;-6.362;2023-05-02T07:18:45;12.80;99.90
37788;DHT22;23627;53.302;-6.362;2023-05-02T07:21:11;12.80;99.90
37788;DHT22;23627;53.302;-6.362;2023-05-02T07:23:37;12.90;99.90
37788;DHT22;23627;53.302;-6.362;2023-05-02T07:26:03;13.00;99.90
37788;DHT22;23627;53.302;-6.362;2023-05-02T07:28:32;13.10;99.90
37788;DHT22;23627;53.302;-6.362;2023-05-02T07:30:58;13.30;99.90
37788;DHT22;23627;53.302;-6.362;2023-05-02T07:33:24;13.50;99.90
37788;DHT22;23627;53.302;-6.362;2023-05-02T07:35:50;13.90;99.90
37788;DHT22;23627;53.302;-6.362;2023-05-02T07:38:16;14.30;99.90
37788;DHT22;23627;53.302;-6.362;2023-05-02T07:40:41;14.70;99.90
37788;DHT22;23627;53.302;-6.362;2023-05-02T07:43:08;15.10;99.90
37788;DHT22;23627;53.302;-6.362;2023-05-02T07:45:34;15.50;99.90
37788;DHT22;23627;53.302;-6.362;2023-05-02T07:48:00;15.80;99.90
37788;DHT22;23627;53.302;-6.362;2023-05-02T07:50:26;16.00;99.90
37788;DHT22;23627;53.302;-6.362;2023-05-02T07:52:53;16.30;99.90
37788;DHT22;23627;53.302;-6.362;2023-05-02T07:55:19;16.50;99.90
37788;DHT22;23627;53.302;-6.362;2023-05-02T07:57:46;16.70;99.90
37788;DHT22;23627;53.302;-6.362;2023-05-02T08:00:12;17.00;99.90
37788;DHT22;23627;53.302;-6.362;2023-05-02T08:02:38;17.10;99.90
37788;DHT22;23627;53.302;-6.362;2023-05-02T08:05:04;17.20;99.90
37788;DHT22;23627;53.302;-6.362;2023-05-02T08:07:31;17.20;99.90
37788;DHT22;23627;53.302;-6.362;2023-05-02T08:09:56;17.20;99.90
37788;DHT22;23627;53.302;-6.362;2023-05-02T08:12:22;17.30;99.90
37788;DHT22;23627;53.302;-6.362;2023-05-02T08:14:48;17.40;99.90
37788;DHT22;23627;53.302;-6.362;2023-05-02T08:17:14;17.40;99.90
37788;DHT22;23627;53.302;-6.362;2023-05-02T08:19:39;17.50;99.90
37788;DHT22;23627;53.302;-6.362;2023-05-02T08:22:05;17.50;99.90
37788;DHT22;23627;53.302;-6.362;2023-05-02T08:24:31;17.60;99.90
37788;DHT22;23627;53.302;-6.362;2023-05-02T08:26:57;17.90;99.90
37788;DHT22;23627;53.302;-6.362;2023-05-02T08:29:23;18.10;99.90
37788;DHT22;23627;53.302;-6.362;2023-05-02T08:31:49;18.30;99.90
37788;DHT22;23627;53.302;-6.362;2023-05-02T08:34:18;18.50;99.90
37788;DHT22;23627;53.302;-6.362;2023-05-02T08:36:44;18.70;99.90
37788;DHT22;23627;53.302;-6.362;2023-05-02T08:39:09;18.70;99.90
37788;DHT22;23627;53.302;-6.362;2023-05-02T08:41:36;18.70;99.90
37788;DHT22;23627;53.302;-6.362;2023-05-02T08:44:02;18.80;99.90
37788;DHT22;23627;53.302;-6.362;2023-05-02T08:46:31;18.70;99.90
37788;DHT22;23627;53.302;-6.362;2023-05-02T08:49:00;18.70;99.90
37788;DHT22;23627;53.302;-6.362;2023-05-02T08:51:27;18.50;99.90
37788;DHT22;23627;53.302;-6.362;2023-05-02T08:53:54;18.40;99.90
37788;DHT22;23627;53.302;-6.362;2023-05-02T08:56:20;18.30;99.90
37788;DHT22;23627;53.302;-6.362;2023-05-02T08:58:46;18.20;99.90
37788;DHT22;23627;53.302;-6.362;2023-05-02T09:01:16;18.10;99.90
37788;DHT22;23627;53.302;-6.362;2023-05-02T09:03:44;18.10;99.90
37788;DHT22;23627;53.302;-6.362;2023-05-02T09:06:15;18.10;99.90
37788;DHT22;23627;53.302;-6.362;2023-05-02T09:08:42;18.20;99.90
37788;DHT22;23627;53.302;-6.362;2023-05-02T09:11:09;18.30;99.90
37788;DHT22;23627;53.302;-6.362;2023-05-02T09:13:37;18.40;99.90
37788;DHT22;23627;53.302;-6.362;2023-05-02T09:16:11;18.50;99.90
37788;DHT22;23627;53.302;-6.362;2023-05-02T09:18:41;18.70;99.90
37788;DHT22;23627;53.302;-6.362;2023-05-02T09:21:13;18.70;99.90
37788;DHT22;23627;53.302;-6.362;2023-05-02T09:28:47;19.10;99.90
37788;DHT22;23627;53.302;-6.362;2023-05-02T09:31:19;19.00;99.90
37788;DHT22;23627;53.302;-6.362;2023-05-02T09:33:49;19.10;99.90
37788;DHT22;23627;53.302;-6.362;2023-05-02T09:36:16;19.10;99.90
37788;DHT22;23627;53.302;-6.362;2023-05-02T09:38:43;19.00;99.90
37788;DHT22;23627;53.302;-6.362;2023-05-02T09:41:09;19.00;99.90
37788;DHT22;23627;53.302;-6.362;2023-05-02T09:43:36;19.00;99.90
37788;DHT22;23627;53.302;-6.362;2023-05-02T09:46:04;19.10;99.90
37788;DHT22;23627;53.302;-6.362;2023-05-02T09:48:32;19.10;99.90
37788;DHT22;23627;53.302;-6.362;2023-05-02T09:50:58;19.10;99.90
37788;DHT22;23627;53.302;-6.362;2023-05-02T09:53:25;19.00;99.90
37788;DHT22;23627;53.302;-6.362;2023-05-02T09:56:04;19.00;99.90
37788;DHT22;23627;53.302;-6.362;2023-05-02T09:58:30;19.00;99.90
37788;DHT22;23627;53.302;-6.362;2023-05-02T10:00:57;19.00;99.90
37788;DHT22;23627;53.302;-6.362;2023-05-02T10:03:24;18.90;99.90
37788;DHT22;23627;53.302;-6.362;2023-05-02T10:05:51;18.90;99.90
37788;DHT22;23627;53.302;-6.362;2023-05-02T10:08:19;19.00;99.90
37788;DHT22;23627;53.302;-6.362;2023-05-02T10:10:56;19.00;99.90
37788;DHT22;23627;53.302;-6.362;2023-05-02T10:13:24;18.90;99.90
37788;DHT22;23627;53.302;-6.362;2023-05-02T10:16:02;19.00;99.90
37788;DHT22;23627;53.302;-6.362;2023-05-02T10:18:49;19.00;99.90
37788;DHT22;23627;53.302;-6.362;2023-05-02T10:21:23;18.90;99.90
37788;DHT22;23627;53.302;-6.362;2023-05-02T10:23:49;18.90;99.90
37788;DHT22;23627;53.302;-6.362;2023-05-02T10:26:18;18.90;99.90
37788;DHT22;23627;53.302;-6.362;2023-05-02T10:28:46;18.90;99.90
37788;DHT22;23627;53.302;-6.362;2023-05-02T10:31:13;18.80;99.90
37788;DHT22;23627;53.302;-6.362;2023-05-02T10:33:39;18.80;99.90
37788;DHT22;23627;53.302;-6.362;2023-05-02T10:36:08;18.70;99.90
37788;DHT22;23627;53.302;-6.362;2023-05-02T10:38:35;18.70;99.90
37788;DHT22;23627;53.302;-6.362;2023-05-02T10:41:25;18.70;99.90
37788;DHT22;23627;53.302;-6.362;2023-05-02T10:43:53;18.60;99.90
37788;DHT22;23627;53.302;-6.362;2023-05-02T10:49:06;18.40;99.90
37788;DHT22;23627;53.302;-6.362;2023-05-02T10:51:34;18.30;99.90
37788;DHT22;23627;53.302;-6.362;2023-05-02T10:54:19;18.40;99.90
37788;DHT22;23627;53.302;-6.362;2023-05-02T10:57:06;18.30;99.90
37788;DHT22;23627;53.302;-6.362;2023-05-02T10:59:40;18.30;99.90
37788;DHT22;23627;53.302;-6.362;2023-05-02T11:05:01;18.20;99.90
37788;DHT22;23627;53.302;-6.362;2023-05-02T11:07:35;18.30;99.90
37788;DHT22;23627;53.302;-6.362;2023-05-02T11:12:50;18.30;99.90
37788;DHT22;23627;53.302;-6.362;2023-05-02T11:18:07;18.20;99.90
37788;DHT22;23627;53.302;-6.362;2023-05-02T11:20:39;18.10;99.90
37788;DHT22;23627;53.302;-6.362;2023-05-02T11:25:45;18.10;99.90
37788;DHT22;23627;53.302;-6.362;2023-05-02T11:30:59;18.30;99.90
37788;DHT22;23627;53.302;-6.362;2023-05-02T11:33:27;18.40;99.90
37788;DHT22;23627;53.302;-6.362;2023-05-02T11:35:53;18.40;99.90
37788;DHT22;23627;53.302;-6.362;2023-05-02T11:38:21;18.40;99.90
37788;DHT22;23627;53.302;-6.362;2023-05-02T11:40:58;18.40;99.90
37788;DHT22;23627;53.302;-6.362;2023-05-02T11:43:26;18.30;99.90
37788;DHT22;23627;53.302;-6.362;2023-05-02T11:45:53;18.30;99.90
37788;DHT22;23627;53.302;-6.362;2023-05-02T11:48:21;18.30;99.90
37788;DHT22;23627;53.302;-6.362;2023-05-02T11:51:00;18.20;99.90
37788;DHT22;23627;53.302;-6.362;2023-05-02T11:53:29;18.20;99.90
37788;DHT22;23627;53.302;-6.362;2023-05-02T11:56:02;18.20;99.90
37788;DHT22;23627;53.302;-6.362;2023-05-02T11:58:29;18.30;99.90
37788;DHT22;23627;53.302;-6.362;2023-05-02T12:00:57;18.40;99.90
37788;DHT22;23627;53.302;-6.362;2023-05-02T12:03:31;18.60;99.90
37788;DHT22;23627;53.302;-6.362;2023-05-02T12:06:08;18.70;99.90
37788;DHT22;23627;53.302;-6.362;2023-05-02T12:08:35;18.70;99.90
37788;DHT22;23627;53.302;-6.362;2023-05-02T12:11:02;18.70;99.90
37788;DHT22;23627;53.302;-6.362;2023-05-02T12:13:29;18.60;99.90
37788;DHT22;23627;53.302;-6.362;2023-05-02T12:15:55;18.60;99.90
37788;DHT22;23627;53.302;-6.362;2023-05-02T12:18:25;18.60;99.90
37788;DHT22;23627;53.302;-6.362;2023-05-02T12:20:53;18.70;99.90
37788;DHT22;23627;53.302;-6.362;2023-05-02T12:23:22;18.70;99.90
37788;DHT22;23627;53.302;-6.362;2023-05-02T12:25:48;18.70;99.90
37788;DHT22;23627;53.302;-6.362;2023-05-02T12:28:18;18.80;99.90
37788;DHT22;23627;53.302;-6.362;2023-05-02T12:30:47;18.90;99.90
37788;DHT22;23627;53.302;-6.362;2023-05-02T12:33:18;19.00;99.90
37788;DHT22;23627;53.302;-6.362;2023-05-02T12:35:44;18.90;99.90
37788;DHT22;23627;53.302;-6.362;2023-05-02T12:38:14;19.00;99.90
37788;DHT22;23627;53.302;-6.362;2023-05-02T12:40:51;19.10;99.90
37788;DHT22;23627;53.302;-6.362;2023-05-02T12:43:21;19.20;99.90
37788;DHT22;23627;53.302;-6.362;2023-05-02T12:45:48;19.30;99.90
37788;DHT22;23627;53.302;-6.362;2023-05-02T12:48:27;19.30;99.90
37788;DHT22;23627;53.302;-6.362;2023-05-02T12:50:54;19.30;99.90
37788;DHT22;23627;53.302;-6.362;2023-05-02T12:56:05;19.40;99.90
37788;DHT22;23627;53.302;-6.362;2023-05-02T12:58:40;19.50;99.90
37788;DHT22;23627;53.302;-6.362;2023-05-02T13:01:13;19.60;99.90
37788;DHT22;23627;53.302;-6.362;2023-05-02T13:03:49;19.60;99.90
37788;DHT22;23627;53.302;-6.362;2023-05-02T13:06:18;19.60;99.90
37788;DHT22;23627;53.302;-6.362;2023-05-02T13:08:44;19.60;99.90
37788;DHT22;23627;53.302;-6.362;2023-05-02T13:11:12;19.60;99.90
37788;DHT22;23627;53.302;-6.362;2023-05-02T13:13:39;19.60;99.90
37788;DHT22;23627;53.302;-6.362;2023-05-02T13:16:14;19.60;99.90
37788;DHT22;23627;53.302;-6.362;2023-05-02T13:18:40;19.60;99.90
37788;DHT22;23627;53.302;-6.362;2023-05-02T13:21:06;19.60;99.90
37788;DHT22;23627;53.302;-6.362;2023-05-02T13:23:33;19.60;99.90
37788;DHT22;23627;53.302;-6.362;2023-05-02T13:26:00;19.60;99.90
37788;DHT22;23627;53.302;-6.362;2023-05-02T13:28:26;19.70;99.90
37788;DHT22;23627;53.302;-6.362;2023-05-02T13:30:53;19.60;99.90
37788;DHT22;23627;53.302;-6.362;2023-05-02T13:33:19;19.70;99.90
37788;DHT22;23627;53.302;-6.362;2023-05-02T13:35:45;19.70;99.90
37788;DHT22;23627;53.302;-6.362;2023-05-02T13:38:11;19.70;99.90
37788;DHT22;23627;53.302;-6.362;2023-05-02T13:40:37;19.70;99.90
37788;DHT22;23627;53.302;-6.362;2023-05-02T13:43:03;19.80;99.90
37788;DHT22;23627;53.302;-6.362;2023-05-02T13:45:28;19.80;99.90
37788;DHT22;23627;53.302;-6.362;2023-05-02T13:47:54;19.90;99.90
37788;DHT22;23627;53.302;-6.362;2023-05-02T13:50:20;19.90;99.90
37788;DHT22;23627;53.302;-6.362;2023-05-02T13:52:46;20.00;99.90
37788;DHT22;23627;53.302;-6.362;2023-05-02T13:55:11;20.00;99.90
37788;DHT22;23627;53.302;-6.362;2023-05-02T13:57:37;20.00;99.90
37788;DHT22;23627;53.302;-6.362;2023-05-02T14:00:03;20.10;99.90
37788;DHT22;23627;53.302;-6.362;2023-05-02T14:02:30;20.10;99.90
37788;DHT22;23627;53.302;-6.362;2023-05-02T14:04:56;20.20;99.90
37788;DHT22;23627;53.302;-6.362;2023-05-02T14:07:22;20.30;99.90
37788;DHT22;23627;53.302;-6.362;2023-05-02T14:09:48;20.30;99.90
37788;DHT22;23627;53.302;-6.362;2023-05-02T14:12:14;20.40;99.90
37788;DHT22;23627;53.302;-6.362;2023-05-02T14:14:40;20.50;99.90
37788;DHT22;23627;53.302;-6.362;2023-05-02T14:17:06;20.60;99.90
37788;DHT22;23627;53.302;-6.362;2023-05-02T14:19:32;20.60;99.90
37788;DHT22;23627;53.302;-6.362;2023-05-02T14:21:58;20.70;99.90
37788;DHT22;23627;53.302;-6.362;2023-05-02T14:24:24;20.70;99.90
37788;DHT22;23627;53.302;-6.362;2023-05-02T14:26:49;20.70;99.90
37788;DHT22;23627;53.302;-6.362;2023-05-02T14:29:15;20.70;99.90
37788;DHT22;23627;53.302;-6.362;2023-05-02T14:31:42;20.60;99.90
37788;DHT22;23627;53.302;-6.362;2023-05-02T14:34:10;20.60;99.90
37788;DHT22;23627;53.302;-6.362;2023-05-02T14:36:36;20.60;99.90
37788;DHT22;23627;53.302;-6.362;2023-05-02T14:39:02;20.50;99.90
37788;DHT22;23627;53.302;-6.362;2023-05-02T14:41:28;20.50;99.90
37788;DHT22;23627;53.302;-6.362;2023-05-02T14:43:53;20.50;99.90
37788;DHT22;23627;53.302;-6.362;2023-05-02T14:46:19;20.50;99.90
37788;DHT22;23627;53.302;-6.362;2023-05-02T14:48:45;20.40;99.90
37788;DHT22;23627;53.302;-6.362;2023-05-02T14:51:11;20.40;99.90
37788;DHT22;23627;53.302;-6.362;2023-05-02T14:53:37;20.40;99.90
37788;DHT22;23627;53.302;-6.362;2023-05-02T14:56:04;20.40;99.90
37788;DHT22;23627;53.302;-6.362;2023-05-02T14:58:30;20.30;99.90
37788;DHT22;23627;53.302;-6.362;2023-05-02T15:00:55;20.30;99.90
37788;DHT22;23627;53.302;-6.362;2023-05-02T15:03:21;20.40;99.90
37788;DHT22;23627;53.302;-6.362;2023-05-02T15:05:47;20.40;99.90
37788;DHT22;23627;53.302;-6.362;2023-05-02T15:08:13;20.50;99.90
37788;DHT22;23627;53.302;-6.362;2023-05-02T15:10:39;20.50;99.90
37788;DHT22;23627;53.302;-6.362;2023-05-02T15:13:05;20.60;99.90
37788;DHT22;23627;53.302;-6.362;2023-05-02T15:15:31;20.60;99.90
37788;DHT22;23627;53.302;-6.362;2023-05-02T15:17:57;20.60;99.90
37788;DHT22;23627;53.302;-6.362;2023-05-02T15:20:23;20.60;99.90
37788;DHT22;23627;53.302;-6.362;2023-05-02T15:22:49;20.70;99.90
37788;DHT22;23627;53.302;-6.362;2023-05-02T15:25:15;20.70;99.90
37788;DHT22;23627;53.302;-6.362;2023-05-02T15:27:41;20.70;99.90
37788;DHT22;23627;53.302;-6.362;2023-05-02T15:30:07;20.70;99.90
37788;DHT22;23627;53.302;-6.362;2023-05-02T15:32:33;20.70;99.90
37788;DHT22;23627;53.302;-6.362;2023-05-02T15:35:00;20.70;99.90
37788;DHT22;23627;53.302;-6.362;2023-05-02T15:37:28;20.60;99.90
37788;DHT22;23627;53.302;-6.362;2023-05-02T15:39:54;20.60;99.90
37788;DHT22;23627;53.302;-6.362;2023-05-02T15:42:20;20.60;99.90
37788;DHT22;23627;53.302;-6.362;2023-05-02T15:44:46;20.60;99.90
37788;DHT22;23627;53.302;-6.362;2023-05-02T15:47:12;20.50;99.90
37788;DHT22;23627;53.302;-6.362;2023-05-02T15:49:38;20.50;99.90
37788;DHT22;23627;53.302;-6.362;2023-05-02T15:52:04;20.50;99.90
37788;DHT22;23627;53.302;-6.362;2023-05-02T15:54:32;20.40;99.90
37788;DHT22;23627;53.302;-6.362;2023-05-02T15:56:58;20.40;99.90
37788;DHT22;23627;53.302;-6.362;2023-05-02T15:59:24;20.40;99.90
37788;DHT22;23627;53.302;-6.362;2023-05-02T16:01:49;20.40;99.90
37788;DHT22;23627;53.302;-6.362;2023-05-02T16:04:15;20.40;99.90
37788;DHT22;23627;53.302;-6.362;2023-05-02T16:06:41;20.30;99.90
37788;DHT22;23627;53.302;-6.362;2023-05-02T16:09:07;20.30;99.90
37788;DHT22;23627;53.302;-6.362;2023-05-02T16:11:33;20.40;99.90
37788;DHT22;23627;53.302;-6.362;2023-05-02T16:13:59;20.40;99.90